sensor_id;sensor_type;location;lat;lon;timestamp;temperature;humidity
78289;DHT22;67539;48.752;12.922;2023-05-09T00:01:29;11.60;98.40
78289;DHT22;67539;48.752;12.922;2023-05-09T00:03:58;11.50;98.50
78289;DHT22;67539;48.752;12.922;2023-05-09T00:06:27;11.50;98.70
78289;DHT22;67539;48.752;12.922;2023-05-09T00:08:55;11.40;98.90
78289;DHT22;67539;48.752;12.922;2023-05-09T00:11:23;11.40;99.00
78289;DHT22;67539;48.752;12.922;2023-05-09T00:13:53;11.30;99.10
78289;DHT22;67539;48.752;12.922;2023-05-09T00:16:21;11.30;99.00
78289;DHT22;67539;48.752;12.922;2023-05-09T00:18:50;11.30;99.00
78289;DHT22;67539;48.752;12.922;2023-05-09T00:21:19;11.20;99.00
78289;DHT22;67539;48.752;12.922;2023-05-09T00:23:47;11.20;98.90
78289;DHT22;67539;48.752;12.922;2023-05-09T00:26:15;11.20;98.80
78289;DHT22;67539;48.752;12.922;2023-05-09T00:28:44;11.30;99.00
78289;DHT22;67539;48.752;12.922;2023-05-09T00:31:14;11.30;99.20
78289;DHT22;67539;48.752;12.922;2023-05-09T00:33:42;11.30;99.10
78289;DHT22;67539;48.752;12.922;2023-05-09T00:36:10;11.20;98.90
78289;DHT22;67539;48.752;12.922;2023-05-09T00:38:39;11.20;98.90
78289;DHT22;67539;48.752;12.922;2023-05-09T00:41:07;11.20;98.90
78289;DHT22;67539;48.752;12.922;2023-05-09T00:43:35;11.10;99.00
78289;DHT22;67539;48.752;12.922;2023-05-09T00:46:03;11.00;98.90
78289;DHT22;67539;48.752;12.922;2023-05-09T00:48:33;11.00;98.80
78289;DHT22;67539;48.752;12.922;2023-05-09T00:51:02;10.90;98.80
78289;DHT22;67539;48.752;12.922;2023-05-09T00:53:31;10.90;98.90
78289;DHT22;67539;48.752;12.922;2023-05-09T00:56:00;10.90;98.90
78289;DHT22;67539;48.752;12.922;2023-05-09T00:58:29;10.80;99.00
78289;DHT22;67539;48.752;12.922;2023-05-09T01:00:57;10.80;99.20
78289;DHT22;67539;48.752;12.922;2023-05-09T01:03:28;10.70;99.40
78289;DHT22;67539;48.752;12.922;2023-05-09T01:06:07;10.70;99.50
78289;DHT22;67539;48.752;12.922;2023-05-09T01:08:43;10.70;99.60
78289;DHT22;67539;48.752;12.922;2023-05-09T01:11:20;10.60;99.70
78289;DHT22;67539;48.752;12.922;2023-05-09T01:13:58;10.60;99.80
78289;DHT22;67539;48.752;12.922;2023-05-09T01:16:38;10.60;99.90
78289;DHT22;67539;48.752;12.922;2023-05-09T01:19:23;10.50;99.90
78289;DHT22;67539;48.752;12.922;2023-05-09T01:21:55;10.50;99.90
78289;DHT22;67539;48.752;12.922;2023-05-09T01:27:32;10.50;99.90
78289;DHT22;67539;48.752;12.922;2023-05-09T01:30:07;10.40;99.90
78289;DHT22;67539;48.752;12.922;2023-05-09T01:32:38;10.40;99.90
78289;DHT22;67539;48.752;12.922;2023-05-09T01:35:11;10.40;99.90
78289;DHT22;67539;48.752;12.922;2023-05-09T01:37:42;10.40;99.90
78289;DHT22;67539;48.752;12.922;2023-05-09T01:40:14;10.40;99.70
78289;DHT22;67539;48.752;12.922;2023-05-09T01:42:44;10.40;99.70
78289;DHT22;67539;48.752;12.922;2023-05-09T01:45:17;10.40;99.90
78289;DHT22;67539;48.752;12.922;2023-05-09T01:47:46;10.40;99.90
78289;DHT22;67539;48.752;12.922;2023-05-09T01:50:17;10.40;99.90
78289;DHT22;67539;48.752;12.922;2023-05-09T01:52:47;10.40;99.90
78289;DHT22;67539;48.752;12.922;2023-05-09T01:55:16;10.40;99.90
78289;DHT22;67539;48.752;12.922;2023-05-09T01:57:47;10.40;99.90
78289;DHT22;67539;48.752;12.922;2023-05-09T02:00:18;10.40;99.90
78289;DHT22;67539;48.752;12.922;2023-05-09T02:02:47;10.40;99.80
78289;DHT22;67539;48.752;12.922;2023-05-09T02:05:16;10.40;99.90
78289;DHT22;67539;48.752;12.922;2023-05-09T02:07:46;10.30;99.70
78289;DHT22;67539;48.752;12.922;2023-05-09T02:10:15;10.30;99.70
78289;DHT22;67539;48.752;12.922;2023-05-09T02:12:43;10.30;99.60
78289;DHT22;67539;48.752;12.922;2023-05-09T02:15:11;10.20;99.60
78289;DHT22;67539;48.752;12.922;2023-05-09T02:17:41;10.20;99.50
78289;DHT22;67539;48.752;12.922;2023-05-09T02:20:10;10.20;99.40
78289;DHT22;67539;48.752;12.922;2023-05-09T02:22:40;10.10;99.50
78289;DHT22;67539;48.752;12.922;2023-05-09T02:25:10;10.10;99.70
78289;DHT22;67539;48.752;12.922;2023-05-09T02:27:43;10.00;99.80
78289;DHT22;67539;48.752;12.922;2023-05-09T02:30:16;10.10;99.80
78289;DHT22;67539;48.752;12.922;2023-05-09T02:32:50;10.00;99.80
78289;DHT22;67539;48.752;12.922;2023-05-09T02:35:21;10.00;99.60
78289;DHT22;67539;48.752;12.922;2023-05-09T02:37:50;10.00;99.30
78289;DHT22;67539;48.752;12.922;2023-05-09T02:40:19;9.90;99.20
78289;DHT22;67539;48.752;12.922;2023-05-09T02:42:49;9.90;99.20
78289;DHT22;67539;48.752;12.922;2023-05-09T02:45:17;9.90;99.40
78289;DHT22;67539;48.752;12.922;2023-05-09T02:47:46;9.90;99.80
78289;DHT22;67539;48.752;12.922;2023-05-09T02:50:15;9.80;99.40
78289;DHT22;67539;48.752;12.922;2023-05-09T02:52:43;9.80;99.40
78289;DHT22;67539;48.752;12.922;2023-05-09T02:55:11;9.70;99.20
78289;DHT22;67539;48.752;12.922;2023-05-09T02:57:41;9.70;99.30
78289;DHT22;67539;48.752;12.922;2023-05-09T03:00:11;9.60;99.30
78289;DHT22;67539;48.752;12.922;2023-05-09T03:02:39;9.60;99.30
78289;DHT22;67539;48.752;12.922;2023-05-09T03:05:15;9.50;99.30
78289;DHT22;67539;48.752;12.922;2023-05-09T03:07:44;9.50;99.20
78289;DHT22;67539;48.752;12.922;2023-05-09T03:10:12;9.40;99.10
78289;DHT22;67539;48.752;12.922;2023-05-09T03:12:41;9.40;99.10
78289;DHT22;67539;48.752;12.922;2023-05-09T03:15:11;9.40;99.10
78289;DHT22;67539;48.752;12.922;2023-05-09T03:17:41;9.30;99.20
78289;DHT22;67539;48.752;12.922;2023-05-09T03:20:10;9.30;99.20
78289;DHT22;67539;48.752;12.922;2023-05-09T03:22:40;9.30;99.30
78289;DHT22;67539;48.752;12.922;2023-05-09T03:25:10;9.20;99.40
78289;DHT22;67539;48.752;12.922;2023-05-09T03:27:39;9.20;99.30
78289;DHT22;67539;48.752;12.922;2023-05-09T03:30:12;9.10;99.20
78289;DHT22;67539;48.752;12.922;2023-05-09T03:32:42;9.10;99.20
78289;DHT22;67539;48.752;12.922;2023-05-09T03:35:10;9.10;98.70
78289;DHT22;67539;48.752;12.922;2023-05-09T03:37:40;9.10;98.80
78289;DHT22;67539;48.752;12.922;2023-05-09T03:40:10;9.00;98.90
78289;DHT22;67539;48.752;12.922;2023-05-09T03:42:48;9.00;99.00
78289;DHT22;67539;48.752;12.922;2023-05-09T03:45:17;8.90;99.00
78289;DHT22;67539;48.752;12.922;2023-05-09T03:47:46;8.80;99.00
78289;DHT22;67539;48.752;12.922;2023-05-09T03:50:14;8.80;99.20
78289;DHT22;67539;48.752;12.922;2023-05-09T03:52:45;8.70;99.20
78289;DHT22;67539;48.752;12.922;2023-05-09T03:55:15;8.70;99.30
78289;DHT22;67539;48.752;12.922;2023-05-09T03:57:44;8.60;99.40
78289;DHT22;67539;48.752;12.922;2023-05-09T04:00:13;8.60;99.60
78289;DHT22;67539;48.752;12.922;2023-05-09T04:02:48;8.60;99.80
78289;DHT22;67539;48.752;12.922;2023-05-09T04:05:27;8.50;99.80
78289;DHT22;67539;48.752;12.922;2023-05-09T04:07:57;8.50;99.90
78289;DHT22;67539;48.752;12.922;2023-05-09T04:10:26;8.50;99.90
78289;DHT22;67539;48.752;12.922;2023-05-09T04:12:54;8.50;99.90
78289;DHT22;67539;48.752;12.922;2023-05-09T04:15:23;8.50;99.90
78289;DHT22;67539;48.752;12.922;2023-05-09T04:17:51;8.50;99.90
78289;DHT22;67539;48.752;12.922;2023-05-09T04:20:20;8.50;99.90
78289;DHT22;67539;48.752;12.922;2023-05-09T04:22:48;8.50;99.90
78289;DHT22;67539;48.752;12.922;2023-05-09T04:25:20;8.60;99.90
78289;DHT22;67539;48.752;12.922;2023-05-09T04:27:49;8.60;99.90
78289;DHT22;67539;48.752;12.922;2023-05-09T04:30:18;8.60;99.90
78289;DHT22;67539;48.752;12.922;2023-05-09T04:32:47;8.60;99.90
78289;DHT22;67539;48.752;12.922;2023-05-09T04:35:16;8.60;99.90
78289;DHT22;67539;48.752;12.922;2023-05-09T04:37:47;8.60;99.90
78289;DHT22;67539;48.752;12.922;2023-05-09T04:40:16;8.70;99.90
78289;DHT22;67539;48.752;12.922;2023-05-09T04:42:53;8.70;99.90
78289;DHT22;67539;48.752;12.922;2023-05-09T04:45:25;8.70;99.90
78289;DHT22;67539;48.752;12.922;2023-05-09T04:47:56;8.70;99.90
78289;DHT22;67539;48.752;12.922;2023-05-09T04:50:25;8.80;99.90
78289;DHT22;67539;48.752;12.922;2023-05-09T04:52:53;8.80;99.90
78289;DHT22;67539;48.752;12.922;2023-05-09T04:55:22;8.90;99.90
78289;DHT22;67539;48.752;12.922;2023-05-09T04:57:50;8.90;99.90
78289;DHT22;67539;48.752;12.922;2023-05-09T05:00:20;9.00;99.90
78289;DHT22;67539;48.752;12.922;2023-05-09T05:02:48;9.00;99.90
78289;DHT22;67539;48.752;12.922;2023-05-09T05:05:17;9.10;99.90
78289;DHT22;67539;48.752;12.922;2023-05-09T05:07:52;9.20;99.90
78289;DHT22;67539;48.752;12.922;2023-05-09T05:10:25;9.30;99.90
78289;DHT22;67539;48.752;12.922;2023-05-09T05:13:01;9.30;99.90
78289;DHT22;67539;48.752;12.922;2023-05-09T05:15:31;9.50;99.90
78289;DHT22;67539;48.752;12.922;2023-05-09T05:18:00;9.50;99.90
78289;DHT22;67539;48.752;12.922;2023-05-09T05:20:32;9.60;99.90
78289;DHT22;67539;48.752;12.922;2023-05-09T05:23:01;9.70;99.70
78289;DHT22;67539;48.752;12.922;2023-05-09T05:25:29;9.80;99.60
78289;DHT22;67539;48.752;12.922;2023-05-09T05:27:59;9.80;99.50
78289;DHT22;67539;48.752;12.922;2023-05-09T05:30:28;9.90;99.20
78289;DHT22;67539;48.752;12.922;2023-05-09T05:33:01;10.00;98.80
78289;DHT22;67539;48.752;12.922;2023-05-09T05:35:30;10.10;98.70
78289;DHT22;67539;48.752;12.922;2023-05-09T05:37:59;10.20;98.50
78289;DHT22;67539;48.752;12.922;2023-05-09T05:40:27;10.30;98.30
78289;DHT22;67539;48.752;12.922;2023-05-09T05:42:59;10.40;98.30
78289;DHT22;67539;48.752;12.922;2023-05-09T05:45:29;10.40;98.10
78289;DHT22;67539;48.752;12.922;2023-05-09T05:47:58;10.50;98.00
78289;DHT22;67539;48.752;12.922;2023-05-09T05:50:31;10.60;97.70
78289;DHT22;67539;48.752;12.922;2023-05-09T05:53:00;10.70;97.70
78289;DHT22;67539;48.752;12.922;2023-05-09T05:55:28;10.80;97.40
78289;DHT22;67539;48.752;12.922;2023-05-09T05:57:56;10.80;96.60
78289;DHT22;67539;48.752;12.922;2023-05-09T06:00:25;10.90;96.40
78289;DHT22;67539;48.752;12.922;2023-05-09T06:03:00;11.00;96.00
78289;DHT22;67539;48.752;12.922;2023-05-09T06:05:50;11.10;96.10
78289;DHT22;67539;48.752;12.922;2023-05-09T06:08:18;11.20;96.20
78289;DHT22;67539;48.752;12.922;2023-05-09T06:10:46;11.30;95.90
78289;DHT22;67539;48.752;12.922;2023-05-09T06:13:15;11.30;95.50
78289;DHT22;67539;48.752;12.922;2023-05-09T06:15:47;11.40;95.70
78289;DHT22;67539;48.752;12.922;2023-05-09T06:18:16;11.50;95.70
78289;DHT22;67539;48.752;12.922;2023-05-09T06:20:44;11.60;95.20
78289;DHT22;67539;48.752;12.922;2023-05-09T06:23:14;11.60;95.30
78289;DHT22;67539;48.752;12.922;2023-05-09T06:25:48;11.70;94.90
78289;DHT22;67539;48.752;12.922;2023-05-09T06:28:16;11.80;94.70
78289;DHT22;67539;48.752;12.922;2023-05-09T06:30:44;11.90;94.50
78289;DHT22;67539;48.752;12.922;2023-05-09T06:33:12;12.00;94.50
78289;DHT22;67539;48.752;12.922;2023-05-09T06:35:42;12.00;94.50
78289;DHT22;67539;48.752;12.922;2023-05-09T06:38:10;12.10;94.20
78289;DHT22;67539;48.752;12.922;2023-05-09T06:40:40;12.10;94.60
78289;DHT22;67539;48.752;12.922;2023-05-09T06:43:08;12.20;94.30
78289;DHT22;67539;48.752;12.922;2023-05-09T06:45:36;12.30;94.30
78289;DHT22;67539;48.752;12.922;2023-05-09T06:48:05;12.40;93.80
78289;DHT22;67539;48.752;12.922;2023-05-09T06:50:33;12.50;93.90
78289;DHT22;67539;48.752;12.922;2023-05-09T06:53:01;12.50;93.90
78289;DHT22;67539;48.752;12.922;2023-05-09T06:55:30;12.60;93.80
78289;DHT22;67539;48.752;12.922;2023-05-09T06:57:59;12.70;93.80
78289;DHT22;67539;48.752;12.922;2023-05-09T07:00:27;12.80;93.40
78289;DHT22;67539;48.752;12.922;2023-05-09T07:02:56;12.90;92.60
78289;DHT22;67539;48.752;12.922;2023-05-09T07:05:24;12.90;92.50
78289;DHT22;67539;48.752;12.922;2023-05-09T07:07:52;13.00;91.90
78289;DHT22;67539;48.752;12.922;2023-05-09T07:10:21;13.20;92.20
78289;DHT22;67539;48.752;12.922;2023-05-09T07:12:49;13.20;91.90
78289;DHT22;67539;48.752;12.922;2023-05-09T07:15:19;13.30;91.80
78289;DHT22;67539;48.752;12.922;2023-05-09T07:18:06;13.30;92.30
78289;DHT22;67539;48.752;12.922;2023-05-09T07:20:35;13.40;92.00
78289;DHT22;67539;48.752;12.922;2023-05-09T07:23:03;13.40;92.00
78289;DHT22;67539;48.752;12.922;2023-05-09T07:25:32;13.50;92.30
78289;DHT22;67539;48.752;12.922;2023-05-09T07:28:00;13.60;91.30
78289;DHT22;67539;48.752;12.922;2023-05-09T07:30:30;13.60;91.20
78289;DHT22;67539;48.752;12.922;2023-05-09T07:32:58;13.70;90.90
78289;DHT22;67539;48.752;12.922;2023-05-09T07:35:27;13.80;91.30
78289;DHT22;67539;48.752;12.922;2023-05-09T07:37:55;13.80;91.30
78289;DHT22;67539;48.752;12.922;2023-05-09T07:40:24;13.90;91.20
78289;DHT22;67539;48.752;12.922;2023-05-09T07:42:52;14.00;91.40
78289;DHT22;67539;48.752;12.922;2023-05-09T07:45:22;14.00;90.90
78289;DHT22;67539;48.752;12.922;2023-05-09T07:47:52;14.10;90.60
78289;DHT22;67539;48.752;12.922;2023-05-09T07:50:20;14.20;90.90
78289;DHT22;67539;48.752;12.922;2023-05-09T07:52:49;14.30;91.00
78289;DHT22;67539;48.752;12.922;2023-05-09T07:55:18;14.40;91.00
78289;DHT22;67539;48.752;12.922;2023-05-09T07:57:47;14.50;91.00
78289;DHT22;67539;48.752;12.922;2023-05-09T08:00:15;14.60;90.70
78289;DHT22;67539;48.752;12.922;2023-05-09T08:02:49;14.70;90.50
78289;DHT22;67539;48.752;12.922;2023-05-09T08:05:19;14.70;90.40
78289;DHT22;67539;48.752;12.922;2023-05-09T08:07:47;14.80;90.00
78289;DHT22;67539;48.752;12.922;2023-05-09T08:10:16;14.90;89.40
78289;DHT22;67539;48.752;12.922;2023-05-09T08:12:44;15.00;88.20
78289;DHT22;67539;48.752;12.922;2023-05-09T08:15:12;15.00;90.00
78289;DHT22;67539;48.752;12.922;2023-05-09T08:17:41;15.20;89.90
78289;DHT22;67539;48.752;12.922;2023-05-09T08:20:11;15.30;89.50
78289;DHT22;67539;48.752;12.922;2023-05-09T08:22:41;15.30;89.20
78289;DHT22;67539;48.752;12.922;2023-05-09T08:25:09;15.50;89.40
78289;DHT22;67539;48.752;12.922;2023-05-09T08:27:40;15.50;88.90
78289;DHT22;67539;48.752;12.922;2023-05-09T08:30:09;15.60;89.20
78289;DHT22;67539;48.752;12.922;2023-05-09T08:32:37;15.60;85.90
78289;DHT22;67539;48.752;12.922;2023-05-09T08:35:07;15.70;88.40
78289;DHT22;67539;48.752;12.922;2023-05-09T08:37:35;15.80;86.10
78289;DHT22;67539;48.752;12.922;2023-05-09T08:40:06;15.80;86.70
78289;DHT22;67539;48.752;12.922;2023-05-09T08:42:36;15.90;86.70
78289;DHT22;67539;48.752;12.922;2023-05-09T08:45:08;16.00;86.40
78289;DHT22;67539;48.752;12.922;2023-05-09T08:47:37;16.10;86.80
78289;DHT22;67539;48.752;12.922;2023-05-09T08:50:07;16.20;85.30
78289;DHT22;67539;48.752;12.922;2023-05-09T08:52:36;16.30;85.60
78289;DHT22;67539;48.752;12.922;2023-05-09T08:55:06;16.40;85.70
78289;DHT22;67539;48.752;12.922;2023-05-09T08:57:35;16.50;85.90
78289;DHT22;67539;48.752;12.922;2023-05-09T09:00:04;16.50;84.50
78289;DHT22;67539;48.752;12.922;2023-05-09T09:02:34;16.60;83.70
78289;DHT22;67539;48.752;12.922;2023-05-09T09:05:05;16.70;84.20
78289;DHT22;67539;48.752;12.922;2023-05-09T09:07:50;16.80;84.00
78289;DHT22;67539;48.752;12.922;2023-05-09T09:10:20;16.80;82.30
78289;DHT22;67539;48.752;12.922;2023-05-09T09:12:52;16.90;82.30
78289;DHT22;67539;48.752;12.922;2023-05-09T09:15:27;17.00;81.80
78289;DHT22;67539;48.752;12.922;2023-05-09T09:17:57;17.00;82.30
78289;DHT22;67539;48.752;12.922;2023-05-09T09:20:29;17.10;80.80
78289;DHT22;67539;48.752;12.922;2023-05-09T09:22:59;17.20;81.90
78289;DHT22;67539;48.752;12.922;2023-05-09T09:25:29;17.30;81.10
78289;DHT22;67539;48.752;12.922;2023-05-09T09:27:57;17.30;81.40
78289;DHT22;67539;48.752;12.922;2023-05-09T09:30:25;17.40;79.10
78289;DHT22;67539;48.752;12.922;2023-05-09T09:32:57;17.50;80.50
78289;DHT22;67539;48.752;12.922;2023-05-09T09:35:26;17.50;80.70
78289;DHT22;67539;48.752;12.922;2023-05-09T09:37:56;17.60;80.20
78289;DHT22;67539;48.752;12.922;2023-05-09T09:40:26;17.70;80.40
78289;DHT22;67539;48.752;12.922;2023-05-09T09:42:55;17.90;79.10
78289;DHT22;67539;48.752;12.922;2023-05-09T09:45:24;18.00;80.60
78289;DHT22;67539;48.752;12.922;2023-05-09T09:47:53;18.00;78.40
78289;DHT22;67539;48.752;12.922;2023-05-09T09:50:21;18.10;79.80
78289;DHT22;67539;48.752;12.922;2023-05-09T09:52:52;18.20;79.80
78289;DHT22;67539;48.752;12.922;2023-05-09T09:55:23;18.20;77.80
78289;DHT22;67539;48.752;12.922;2023-05-09T09:57:51;18.30;78.70
78289;DHT22;67539;48.752;12.922;2023-05-09T10:00:25;18.40;78.10
78289;DHT22;67539;48.752;12.922;2023-05-09T10:02:56;18.50;77.70
78289;DHT22;67539;48.752;12.922;2023-05-09T10:05:25;18.50;77.20
78289;DHT22;67539;48.752;12.922;2023-05-09T10:07:54;18.60;77.30
78289;DHT22;67539;48.752;12.922;2023-05-09T10:10:26;18.70;79.00
78289;DHT22;67539;48.752;12.922;2023-05-09T10:12:57;18.70;77.40
78289;DHT22;67539;48.752;12.922;2023-05-09T10:15:28;18.90;77.70
78289;DHT22;67539;48.752;12.922;2023-05-09T10:18:12;18.90;75.60
78289;DHT22;67539;48.752;12.922;2023-05-09T10:20:44;19.00;76.40
78289;DHT22;67539;48.752;12.922;2023-05-09T10:23:15;19.10;74.60
78289;DHT22;67539;48.752;12.922;2023-05-09T10:25:46;19.20;75.70
78289;DHT22;67539;48.752;12.922;2023-05-09T10:28:17;19.20;76.20
78289;DHT22;67539;48.752;12.922;2023-05-09T10:30:55;19.30;76.50
78289;DHT22;67539;48.752;12.922;2023-05-09T10:33:27;19.40;75.80
78289;DHT22;67539;48.752;12.922;2023-05-09T10:35:59;19.50;77.10
78289;DHT22;67539;48.752;12.922;2023-05-09T10:38:29;19.60;76.60
78289;DHT22;67539;48.752;12.922;2023-05-09T10:40:58;19.70;77.10
78289;DHT22;67539;48.752;12.922;2023-05-09T10:43:27;19.80;75.60
78289;DHT22;67539;48.752;12.922;2023-05-09T10:46:00;19.90;75.70
78289;DHT22;67539;48.752;12.922;2023-05-09T10:48:28;20.00;75.80
78289;DHT22;67539;48.752;12.922;2023-05-09T10:50:57;20.00;74.00
78289;DHT22;67539;48.752;12.922;2023-05-09T10:53:39;20.00;73.80
78289;DHT22;67539;48.752;12.922;2023-05-09T10:56:21;20.10;73.50
78289;DHT22;67539;48.752;12.922;2023-05-09T10:58:50;20.10;73.80
78289;DHT22;67539;48.752;12.922;2023-05-09T11:01:29;20.20;75.00
78289;DHT22;67539;48.752;12.922;2023-05-09T11:03:59;20.30;73.70
78289;DHT22;67539;48.752;12.922;2023-05-09T11:06:42;20.40;74.80
78289;DHT22;67539;48.752;12.922;2023-05-09T11:09:22;20.50;73.30
78289;DHT22;67539;48.752;12.922;2023-05-09T11:11:54;20.60;74.40
78289;DHT22;67539;48.752;12.922;2023-05-09T11:14:38;20.70;75.30
78289;DHT22;67539;48.752;12.922;2023-05-09T11:17:09;20.80;73.50
78289;DHT22;67539;48.752;12.922;2023-05-09T11:19:56;20.90;73.80
78289;DHT22;67539;48.752;12.922;2023-05-09T11:22:25;21.00;73.40
78289;DHT22;67539;48.752;12.922;2023-05-09T11:25:02;21.00;72.90
78289;DHT22;67539;48.752;12.922;2023-05-09T11:27:37;21.10;71.40
78289;DHT22;67539;48.752;12.922;2023-05-09T11:30:07;21.10;70.00
78289;DHT22;67539;48.752;12.922;2023-05-09T11:32:43;21.20;72.00
78289;DHT22;67539;48.752;12.922;2023-05-09T11:35:12;21.20;69.40
78289;DHT22;67539;48.752;12.922;2023-05-09T11:37:46;21.10;71.20
78289;DHT22;67539;48.752;12.922;2023-05-09T11:40:16;21.10;71.20
78289;DHT22;67539;48.752;12.922;2023-05-09T11:42:46;21.20;71.20
78289;DHT22;67539;48.752;12.922;2023-05-09T11:45:16;21.30;71.40
78289;DHT22;67539;48.752;12.922;2023-05-09T11:47:46;21.30;69.50
78289;DHT22;67539;48.752;12.922;2023-05-09T11:50:16;21.40;69.80
78289;DHT22;67539;48.752;12.922;2023-05-09T11:52:45;21.50;71.10
78289;DHT22;67539;48.752;12.922;2023-05-09T11:55:15;21.60;71.00
78289;DHT22;67539;48.752;12.922;2023-05-09T11:57:45;21.80;71.60
78289;DHT22;67539;48.752;12.922;2023-05-09T12:00:15;21.80;71.30
78289;DHT22;67539;48.752;12.922;2023-05-09T12:02:45;21.90;68.80
78289;DHT22;67539;48.752;12.922;2023-05-09T12:05:15;22.00;69.50
78289;DHT22;67539;48.752;12.922;2023-05-09T12:07:46;22.00;69.80
78289;DHT22;67539;48.752;12.922;2023-05-09T12:10:15;22.10;71.40
78289;DHT22;67539;48.752;12.922;2023-05-09T12:12:45;22.20;69.60
78289;DHT22;67539;48.752;12.922;2023-05-09T12:15:14;22.30;68.80
78289;DHT22;67539;48.752;12.922;2023-05-09T12:17:45;22.30;68.40
78289;DHT22;67539;48.752;12.922;2023-05-09T12:20:17;22.30;70.10
78289;DHT22;67539;48.752;12.922;2023-05-09T12:22:52;22.50;69.50
78289;DHT22;67539;48.752;12.922;2023-05-09T12:25:21;22.50;68.40
78289;DHT22;67539;48.752;12.922;2023-05-09T12:27:50;22.60;68.80
78289;DHT22;67539;48.752;12.922;2023-05-09T12:30:20;22.70;69.40
78289;DHT22;67539;48.752;12.922;2023-05-09T12:32:50;22.70;67.60
78289;DHT22;67539;48.752;12.922;2023-05-09T12:35:20;22.80;66.30
78289;DHT22;67539;48.752;12.922;2023-05-09T12:37:57;22.80;66.70
78289;DHT22;67539;48.752;12.922;2023-05-09T12:40:26;22.90;65.20
78289;DHT22;67539;48.752;12.922;2023-05-09T12:42:56;23.10;67.20
78289;DHT22;67539;48.752;12.922;2023-05-09T12:45:26;23.10;67.40
78289;DHT22;67539;48.752;12.922;2023-05-09T12:47:57;23.30;66.90
78289;DHT22;67539;48.752;12.922;2023-05-09T12:50:30;23.20;63.70
78289;DHT22;67539;48.752;12.922;2023-05-09T12:53:01;23.10;64.70
78289;DHT22;67539;48.752;12.922;2023-05-09T12:55:30;23.20;65.80
78289;DHT22;67539;48.752;12.922;2023-05-09T12:58:00;23.30;65.80
78289;DHT22;67539;48.752;12.922;2023-05-09T13:00:39;23.40;66.60
78289;DHT22;67539;48.752;12.922;2023-05-09T13:03:20;23.50;64.90
78289;DHT22;67539;48.752;12.922;2023-05-09T13:05:55;23.70;65.40
78289;DHT22;67539;48.752;12.922;2023-05-09T13:08:23;23.80;64.60
78289;DHT22;67539;48.752;12.922;2023-05-09T13:10:52;23.90;64.00
78289;DHT22;67539;48.752;12.922;2023-05-09T13:13:34;24.00;63.70
78289;DHT22;67539;48.752;12.922;2023-05-09T13:16:03;24.10;63.80
78289;DHT22;67539;48.752;12.922;2023-05-09T13:18:35;24.20;62.50
78289;DHT22;67539;48.752;12.922;2023-05-09T13:21:03;24.20;61.40
78289;DHT22;67539;48.752;12.922;2023-05-09T13:23:31;24.30;62.80
78289;DHT22;67539;48.752;12.922;2023-05-09T13:26:00;24.40;62.20
78289;DHT22;67539;48.752;12.922;2023-05-09T13:28:28;24.50;61.10
78289;DHT22;67539;48.752;12.922;2023-05-09T13:30:56;24.60;61.20
78289;DHT22;67539;48.752;12.922;2023-05-09T13:33:26;24.80;61.60
78289;DHT22;67539;48.752;12.922;2023-05-09T13:35:56;24.90;60.60
78289;DHT22;67539;48.752;12.922;2023-05-09T13:38:24;24.90;59.50
78289;DHT22;67539;48.752;12.922;2023-05-09T13:40:52;25.00;59.00
78289;DHT22;67539;48.752;12.922;2023-05-09T13:43:21;25.30;59.10
78289;DHT22;67539;48.752;12.922;2023-05-09T13:45:49;25.90;58.30
78289;DHT22;67539;48.752;12.922;2023-05-09T13:48:18;26.90;55.70
78289;DHT22;67539;48.752;12.922;2023-05-09T13:50:46;28.10;55.50
78289;DHT22;67539;48.752;12.922;2023-05-09T13:53:15;29.50;55.50
78289;DHT22;67539;48.752;12.922;2023-05-09T13:55:44;31.10;51.90
78289;DHT22;67539;48.752;12.922;2023-05-09T13:58:13;32.40;49.30
78289;DHT22;67539;48.752;12.922;2023-05-09T14:00:41;33.50;47.90
78289;DHT22;67539;48.752;12.922;2023-05-09T14:03:09;34.40;44.60
78289;DHT22;67539;48.752;12.922;2023-05-09T14:05:37;35.20;42.70
78289;DHT22;67539;48.752;12.922;2023-05-09T14:08:06;35.60;42.10
78289;DHT22;67539;48.752;12.922;2023-05-09T14:10:35;35.80;41.50
78289;DHT22;67539;48.752;12.922;2023-05-09T14:13:04;36.50;39.20
78289;DHT22;67539;48.752;12.922;2023-05-09T14:15:34;36.80;37.70
78289;DHT22;67539;48.752;12.922;2023-05-09T14:18:02;36.60;38.00
78289;DHT22;67539;48.752;12.922;2023-05-09T14:20:31;37.00;37.90
78289;DHT22;67539;48.752;12.922;2023-05-09T14:23:02;37.20;36.70
78289;DHT22;67539;48.752;12.922;2023-05-09T14:25:30;37.30;36.20
78289;DHT22;67539;48.752;12.922;2023-05-09T14:27:59;37.20;37.00
78289;DHT22;67539;48.752;12.922;2023-05-09T14:30:27;37.40;35.40
78289;DHT22;67539;48.752;12.922;2023-05-09T14:32:56;37.40;35.50
78289;DHT22;67539;48.752;12.922;2023-05-09T14:35:24;37.70;35.50
78289;DHT22;67539;48.752;12.922;2023-05-09T14:37:53;37.90;34.50
78289;DHT22;67539;48.752;12.922;2023-05-09T14:40:21;38.20;34.40
78289;DHT22;67539;48.752;12.922;2023-05-09T14:42:49;38.30;33.70
78289;DHT22;67539;48.752;12.922;2023-05-09T14:45:19;38.40;34.30
78289;DHT22;67539;48.752;12.922;2023-05-09T14:47:47;38.30;33.70
78289;DHT22;67539;48.752;12.922;2023-05-09T14:50:15;38.40;34.00
78289;DHT22;67539;48.752;12.922;2023-05-09T14:52:44;38.40;35.30
78289;DHT22;67539;48.752;12.922;2023-05-09T14:55:12;38.30;34.10
78289;DHT22;67539;48.752;12.922;2023-05-09T14:57:40;38.50;33.20
78289;DHT22;67539;48.752;12.922;2023-05-09T15:00:10;38.20;32.80
78289;DHT22;67539;48.752;12.922;2023-05-09T15:02:48;37.90;33.60
78289;DHT22;67539;48.752;12.922;2023-05-09T15:05:17;38.10;32.80
78289;DHT22;67539;48.752;12.922;2023-05-09T15:07:45;38.30;33.20
78289;DHT22;67539;48.752;12.922;2023-05-09T15:10:13;38.20;32.50
78289;DHT22;67539;48.752;12.922;2023-05-09T15:12:42;37.70;33.00
78289;DHT22;67539;48.752;12.922;2023-05-09T15:15:12;37.60;33.00
78289;DHT22;67539;48.752;12.922;2023-05-09T15:17:41;37.60;32.90
78289;DHT22;67539;48.752;12.922;2023-05-09T15:20:12;37.20;33.10
78289;DHT22;67539;48.752;12.922;2023-05-09T15:22:42;37.10;33.60
78289;DHT22;67539;48.752;12.922;2023-05-09T15:25:10;36.90;33.00
78289;DHT22;67539;48.752;12.922;2023-05-09T15:27:38;36.40;32.40
78289;DHT22;67539;48.752;12.922;2023-05-09T15:30:08;36.00;32.90
78289;DHT22;67539;48.752;12.922;2023-05-09T15:32:36;35.80;33.40
78289;DHT22;67539;48.752;12.922;2023-05-09T15:35:07;35.50;32.60
78289;DHT22;67539;48.752;12.922;2023-05-09T15:37:37;35.10;33.70
78289;DHT22;67539;48.752;12.922;2023-05-09T15:40:06;34.60;33.70